Valley Springs, SD (57068)

9:07 PM CDT on October 22, 2014 (GMT -0500)
Split Rock Cr | Change Station
CLOSE
Current Station
Personal Weather Station
Location: Garretson, SD
Elevation: 1470 ft
Nearby Weather Stations

Elev 1470 ft 43.71 °N, 96.51 °W | Updated 48 seconds ago

Overcast
Overcast
55.8 °F
Feels Like 55.8 °F
N
6.0
Wind Variable Wind from WNW
Gusts 0.0 mph

Today
High -- | Low -- °F
--% Chance of Precip.
Yesterday
High -- | Low -- °F
Precip. -- in
7:48 AM 6:31 PM
Waning Crescent, 1% visible
Pressure 30.01 in
Visibility 7.0 miles
Clouds Mostly Cloudy 600 ft
Overcast 1300 ft
Dew Point 55 °F
Humidity 96%
Rainfall 0.48 in
Snow Depth Not available.
UV 0 out of 12
Pollen 1.50 out of 12
Air Quality Not available.
Flu Activity Sporadic
METAR KLYV 230154Z AUTO 21008KT 7SM BKN006 OVC013 15/14 A3001 RMK AO2

More Conditions Fewer Conditions

Pressure 30.01 in
Visibility 7.0 miles
Clouds Mostly Cloudy 600 ft
Overcast 1300 ft
Dew Point 55 °F
Humidity 96%
Rainfall 0.48 in
Snow Depth Not available.
UV 0 out of 12
Pollen 1.50 out of 12
Air Quality Not available.
Flu Activity Sporadic
METAR KLYV 230154Z AUTO 21008KT 7SM BKN006 OVC013 15/14 A3001 RMK AO2

More Conditions Fewer Conditions

10-Day Weather Forecast

Almanac

Astronomy

Oct. 22, 2014 Rise Set
Actual Time 7:48 AM CDT 6:31 PM CDT
Civil Twilight 7:19 AM CDT 7:00 PM CDT
Nautical Twilight 6:46 AM CDT 7:33 PM CDT
Astronomical Twilight 6:12 AM CDT 8:06 PM CDT
Moon 6:28 AM CDT (10/22) 6:00 PM CDT (10/22)
Length of Visible Light 11h 40m
Length of Day
10h 42m
Tomorrow will be 2m 47s shorter.
Waning Crescent, 1% of the Moon is Illuminated
Today
Waning Crescent
Oct 23
New
Oct 30
First Quarter
Nov 6
Full
Nov 14
Last Quarter

Today's Extremes

State Highs State Lows

Community

WunderPhotos

Upload Photos

1,764,109 photos uploaded!

Nearby

Snow Depth

Station Depth Elevation
North Rapid Creek 1 in 6130 ft
Blind Park 0 in 6890 ft

Earthquake Activity

City Distance Mag. Time & Date
No recent earthquake activity has been reported nearby.
Minimum magnitude displayed is 2.5.

Coastal Water Temperatures

Place Temperature
No Stations Reporting

Nearby Weather Stations